This is the latest recevied weather packets stored in our database for station/object DL7HMX-13. If no packets are shown the sender has not sent any weather packets the latest 10 day(s).
| Time | Temp. | Humidity | Pressure | Rain* | Wind** | Luminosity | Snow |
|---|---|---|---|---|---|---|---|
| 1777190431 | 13.33° C | 50% | 1022 hPa | 0 mm | - | 450 W/m² | - |
| 1777189818 | 12.78° C | 52% | 1022.1 hPa | 0 mm | - | 423 W/m² | - |
| 1777189220 | 13.33° C | 52% | 1022 hPa | 0 mm | - | 400 W/m² | - |
| 1777188623 | 13.33° C | 53% | 1022 hPa | 0 mm | - | 372 W/m² | - |
| 1777188026 | 12.78° C | 56% | 1022 hPa | 0 mm | - | 353 W/m² | - |
| 1777187428 | 11.67° C | 59% | 1022 hPa | 0 mm | - | 326 W/m² | - |
| 1777186831 | 11.67° C | 62% | 1021.9 hPa | 0 mm | - | 295 W/m² | - |
| 1777186218 | 10.56° C | 68% | 1021.9 hPa | 0 mm | - | 270 W/m² | - |
| 1777185620 | 9.44° C | 74% | 1021.8 hPa | 0 mm | - | 244 W/m² | - |
| 1777185024 | 9.44° C | 72% | 1021.7 hPa | 0 mm | - | 220 W/m² | - |
| 1777184425 | 8.33° C | 74% | 1021.7 hPa | 0 mm | - | 194 W/m² | - |
| 1777183828 | 7.78° C | 77% | 1021.7 hPa | 0 mm | - | 167 W/m² | - |
| 1777183231 | 7.22° C | 79% | 1021.5 hPa | 0 mm | - | 144 W/m² | - |
| 1777182617 | 6.67° C | 80% | 1021.6 hPa | 0 mm | - | 123 W/m² | - |
| 1777182022 | 6.11° C | 81% | 1021.5 hPa | 0 mm | - | 102 W/m² | - |
| 1777181424 | 5.56° C | 83% | 1021.3 hPa | 0 mm | - | 85 W/m² | - |
| 1777180826 | 5° C | 85% | 1021.3 hPa | 0 mm | - | 67 W/m² | - |
| 1777180229 | 4.44° C | 87% | 1021 hPa | 0 mm | - | 53 W/m² | - |
| 1777179616 | 4.44° C | 84% | 1020.9 hPa | 0 mm | - | 38 W/m² | - |
| 1777179019 | 3.33° C | 90% | 1020.7 hPa | 0 mm | - | 27 W/m² | - |
| 1777178421 | 2.78° C | 90% | 1020.6 hPa | 0 mm | - | 22 W/m² | - |
| 1777177824 | 2.22° C | 92% | 1020.3 hPa | 0 mm | - | 17 W/m² | - |
| 1777177228 | 1.67° C | 95% | 1020.1 hPa | 0 mm | - | 11 W/m² | - |
| 1777176630 | 1.67° C | 95% | 1020 hPa | 0 mm | - | 7 W/m² | - |
| 1777176016 | 1.67° C | 96% | 1019.8 hPa | 0 mm | - | 3 W/m² | - |
* Rain latest hour (hover to see other rain measurements)
** Current wind speed in m/s (hover to see current wind gust speed)